RWV weather

Caldwell Municipal Airport
Caldwell, Texas, United States

Public forecast

Using degrees Fahrenheit for public forecast. Weather courtesy of forecast.io.

METAR (pilot weather report)

Retrieved 2019/07/24 07:35 UTC (10 minutes ago):

KRWV 240735Z AUTO 36004KT 10SM CLR 22/18 A3007 RMK AO2 T02250182

TAF (pilot weather forecast)

Closest forecast is Easterwood Field, 18.1 nm (33.6 km) ENE. Retrieved 2019/07/24 06:22 UTC (1 hour ago):

TAF KCLL 240520Z 2406/2506 03006KT P6SM SKC FM241400 03012KT P6SM SKC FM250100 04006KT P6SM SKC